createdAt,value
2023-03-28T00:01:09.261Z,97810.22
2023-03-28T00:03:40.179Z,97799.19
2023-03-28T00:06:11.052Z,97801.16
2023-03-28T00:08:40.199Z,97808.63
2023-03-28T00:11:09.844Z,97817.22
2023-03-28T00:13:37.603Z,97810.28
2023-03-28T00:16:08.246Z,97807.06
2023-03-28T00:18:37.586Z,97815.25
2023-03-28T00:21:10.051Z,97816.34
2023-03-28T00:23:37.638Z,97809.84
2023-03-28T00:26:07.855Z,97815.97
2023-03-28T00:28:36.364Z,97809.97
2023-03-28T00:31:05.300Z,97809.53
2023-03-28T00:33:32.935Z,97813.16
2023-03-28T00:36:00.765Z,97813.03
2023-03-28T00:38:29.832Z,97809.41
2023-03-28T00:40:57.734Z,97808.28
2023-03-28T00:43:40.144Z,97809.25
2023-03-28T00:46:12.309Z,97808.00
2023-03-28T00:48:50.716Z,97815.56
2023-03-28T00:51:20.412Z,97812.72
2023-03-28T00:53:50.190Z,97820.88
2023-03-28T00:56:20.781Z,97826.69
2023-03-28T00:58:49.119Z,97819.28
2023-03-28T01:01:17.730Z,97823.31
2023-03-28T01:03:48.753Z,97818.81
2023-03-28T01:06:16.998Z,97821.50
2023-03-28T01:08:47.581Z,97828.81
2023-03-28T01:11:18.250Z,97823.38
2023-03-28T01:13:48.273Z,97821.00
2023-03-28T01:16:16.408Z,97820.03
2023-03-28T01:18:47.024Z,97830.16
2023-03-28T01:21:31.331Z,97839.28
2023-03-28T01:24:34.056Z,97825.50
2023-03-28T01:27:07.046Z,97831.50
2023-03-28T01:30:03.596Z,97832.47
2023-03-28T01:33:31.454Z,97835.22
2023-03-28T01:36:39.386Z,97831.88
2023-03-28T01:39:10.377Z,97833.69
2023-03-28T01:41:43.040Z,97835.22
2023-03-28T01:44:13.543Z,97825.59
2023-03-28T01:46:45.879Z,97840.22
2023-03-28T01:49:18.472Z,97836.63
2023-03-28T01:51:52.838Z,97834.84
2023-03-28T01:54:30.053Z,97826.84
2023-03-28T01:57:03.205Z,97839.28
2023-03-28T01:59:38.225Z,97837.84
2023-03-28T02:02:28.383Z,97833.34
2023-03-28T02:05:02.035Z,97835.53
2023-03-28T02:07:33.784Z,97831.81
2023-03-28T02:10:22.855Z,97829.66
2023-03-28T02:13:03.627Z,97836.28
2023-03-28T02:15:55.504Z,97833.44
2023-03-28T02:18:45.573Z,97836.50
2023-03-28T02:21:37.700Z,97842.59
2023-03-28T02:24:12.583Z,97830.84
2023-03-28T02:26:54.252Z,97840.53
2023-03-28T02:29:43.163Z,97845.47
2023-03-28T02:32:17.432Z,97847.59
2023-03-28T02:34:47.279Z,97846.56
2023-03-28T02:37:25.771Z,97834.31
2023-03-28T02:40:03.657Z,97853.72
2023-03-28T02:42:51.419Z,97844.41
2023-03-28T02:45:27.864Z,97848.41
2023-03-28T02:48:02.835Z,97839.06
2023-03-28T02:50:36.175Z,97831.56
2023-03-28T02:53:06.280Z,97839.31
2023-03-28T02:55:39.278Z,97836.69
2023-03-28T02:58:17.470Z,97843.34
2023-03-28T03:00:45.087Z,97850.53
2023-03-28T03:03:13.976Z,97846.03
2023-03-28T03:05:41.539Z,97847.34
2023-03-28T03:08:09.205Z,97849.19
2023-03-28T03:10:38.096Z,97859.06
2023-03-28T03:13:05.647Z,97863.41
2023-03-28T03:15:35.597Z,97860.34
2023-03-28T03:18:23.396Z,97862.56
2023-03-28T03:20:51.351Z,97857.53
2023-03-28T03:23:18.911Z,97858.03
2023-03-28T03:25:50.514Z,97853.34
2023-03-28T03:28:31.524Z,97859.69
2023-03-28T03:31:01.201Z,97853.38
2023-03-28T03:33:48.486Z,97865.25
2023-03-28T03:36:20.899Z,97865.78
2023-03-28T03:38:48.561Z,97869.69
2023-03-28T03:41:22.964Z,97862.25
2023-03-28T03:43:50.427Z,97858.81
2023-03-28T03:46:18.194Z,97857.66
2023-03-28T03:48:49.245Z,97864.44
2023-03-28T03:51:18.181Z,97865.25
2023-03-28T03:53:46.646Z,97873.88
2023-03-28T03:56:17.519Z,97872.84
2023-03-28T03:58:54.752Z,97878.16
2023-03-28T04:01:25.861Z,97878.16
2023-03-28T04:03:54.817Z,97878.28
2023-03-28T04:06:29.461Z,97885.09
2023-03-28T04:08:57.245Z,97880.66
2023-03-28T04:11:41.959Z,97878.50
2023-03-28T04:14:10.906Z,97894.75
2023-03-28T04:16:41.072Z,97888.78
2023-03-28T04:19:10.745Z,97887.59
2023-03-28T04:21:42.852Z,97884.97
2023-03-28T04:24:15.374Z,97897.84
2023-03-28T04:26:50.153Z,97902.41
2023-03-28T04:29:25.267Z,97908.03
2023-03-28T04:32:12.868Z,97912.72
2023-03-28T04:35:01.217Z,97912.44
2023-03-28T04:37:28.726Z,97916.69
2023-03-28T04:40:04.384Z,97916.81
2023-03-28T04:42:42.303Z,97924.31
2023-03-28T04:45:17.681Z,97933.03
2023-03-28T04:47:46.782Z,97929.22
2023-03-28T04:50:19.283Z,97927.50
2023-03-28T04:52:46.955Z,97935.59
2023-03-28T04:55:17.067Z,97937.72
2023-03-28T04:57:46.438Z,97939.50
2023-03-28T05:00:16.897Z,97940.66
2023-03-28T05:02:57.596Z,97942.59
2023-03-28T05:05:27.393Z,97945.72
2023-03-28T05:07:56.312Z,97948.34
2023-03-28T05:10:24.167Z,97954.19
2023-03-28T05:12:58.558Z,97954.78
2023-03-28T05:15:28.540Z,97966.25
2023-03-28T05:18:03.587Z,97969.25
2023-03-28T05:20:35.963Z,97974.63
2023-03-28T05:23:05.990Z,97964.31
2023-03-28T05:25:35.073Z,97969.91
2023-03-28T05:28:02.912Z,97974.13
2023-03-28T05:30:32.782Z,97977.22
2023-03-28T05:33:01.461Z,97974.56
2023-03-28T05:35:30.509Z,97982.59
2023-03-28T05:37:58.437Z,97983.84
2023-03-28T05:40:25.984Z,97985.94
2023-03-28T05:42:53.530Z,97988.91
2023-03-28T05:45:21.865Z,97992.16
2023-03-28T05:47:54.407Z,97992.03
2023-03-28T05:50:23.459Z,97999.56
2023-03-28T05:52:52.025Z,98004.03
2023-03-28T05:55:20.335Z,98001.59
2023-03-28T05:57:48.554Z,98003.84
2023-03-28T06:00:19.657Z,98006.97
2023-03-28T06:02:47.194Z,98009.41
2023-03-28T06:05:19.710Z,98014.28
2023-03-28T06:07:47.744Z,98018.22
2023-03-28T06:10:17.431Z,98032.25
2023-03-28T06:12:56.344Z,98023.53
2023-03-28T06:15:24.984Z,98036.63
2023-03-28T06:17:52.652Z,98036.56
2023-03-28T06:20:21.569Z,98047.84
2023-03-28T06:22:54.070Z,98045.66
2023-03-28T06:25:21.597Z,98050.38
2023-03-28T06:27:49.604Z,98061.19
2023-03-28T06:30:18.213Z,98064.41
2023-03-28T06:32:50.783Z,98069.16
2023-03-28T06:35:18.508Z,98072.25
2023-03-28T06:37:47.437Z,98071.47
2023-03-28T06:40:19.141Z,98069.00
2023-03-28T06:42:46.787Z,98072.75
2023-03-28T06:45:23.986Z,98077.75
2023-03-28T06:47:59.711Z,98084.81
2023-03-28T06:50:50.102Z,98082.88
2023-03-28T06:53:22.360Z,98097.66
2023-03-28T06:55:50.863Z,98088.34
2023-03-28T06:58:18.432Z,98092.00
2023-03-28T07:00:54.340Z,98090.56
2023-03-28T07:03:38.712Z,98101.56
2023-03-28T07:06:08.644Z,98110.13
2023-03-28T07:08:39.602Z,98110.88
2023-03-28T07:11:07.984Z,98107.66
2023-03-28T07:13:35.588Z,98112.56
2023-03-28T07:16:08.238Z,98114.56
2023-03-28T07:18:36.134Z,98111.84
2023-03-28T07:21:08.121Z,98107.72
2023-03-28T07:23:36.312Z,98119.47
2023-03-28T07:26:06.044Z,98104.78
2023-03-28T07:28:33.774Z,98127.66
2023-03-28T07:31:04.548Z,98121.06
2023-03-28T07:33:37.674Z,98128.84
2023-03-28T07:36:13.186Z,98128.81
2023-03-28T07:38:41.955Z,98136.47
2023-03-28T07:41:11.359Z,98132.50
2023-03-28T07:43:40.148Z,98138.94
2023-03-28T07:46:09.085Z,98139.06
2023-03-28T07:48:37.560Z,98150.34
2023-03-28T07:51:06.432Z,98148.22
2023-03-28T07:53:34.904Z,98159.59
2023-03-28T07:56:02.536Z,98153.25
2023-03-28T07:58:40.923Z,98159.13
2023-03-28T08:01:12.192Z,98164.19
2023-03-28T08:03:46.645Z,98169.34
2023-03-28T08:06:31.115Z,98166.34
2023-03-28T08:09:01.893Z,98181.06
2023-03-28T08:11:42.244Z,98168.22
2023-03-28T08:14:13.025Z,98171.47
2023-03-28T08:16:41.070Z,98176.91
2023-03-28T08:19:11.814Z,98168.53
2023-03-28T08:22:03.373Z,98179.38
2023-03-28T08:24:40.316Z,98184.94
2023-03-28T08:27:12.207Z,98188.88
2023-03-28T08:29:42.199Z,98187.13
2023-03-28T08:32:10.685Z,98181.06
2023-03-28T08:34:40.563Z,98184.75
2023-03-28T08:37:14.710Z,98179.56
2023-03-28T08:39:44.931Z,98180.34
2023-03-28T08:42:31.395Z,98194.19
2023-03-28T08:45:09.925Z,98195.09
2023-03-28T08:47:39.012Z,98196.91
2023-03-28T08:50:14.117Z,98202.66
2023-03-28T08:52:42.447Z,98216.06
2023-03-28T08:55:23.866Z,98215.28
2023-03-28T08:57:53.115Z,98211.06
2023-03-28T09:00:24.621Z,98221.72
2023-03-28T09:02:52.556Z,98218.72
2023-03-28T09:05:25.362Z,98217.88
2023-03-28T09:08:03.454Z,98220.59
2023-03-28T09:10:35.942Z,98237.50
2023-03-28T09:13:21.234Z,98237.50
2023-03-28T09:16:02.400Z,98226.00
2023-03-28T09:18:43.617Z,98218.25
2023-03-28T09:21:15.346Z,98225.13
2023-03-28T09:23:56.200Z,98222.38
2023-03-28T09:26:55.148Z,98219.75
2023-03-28T09:29:25.529Z,98230.75
2023-03-28T09:31:57.367Z,98226.56
2023-03-28T09:34:29.276Z,98239.44
2023-03-28T09:37:05.545Z,98233.16
2023-03-28T09:39:37.750Z,98235.09
2023-03-28T09:42:12.252Z,98225.25
2023-03-28T09:44:54.822Z,98228.75
2023-03-28T09:47:44.691Z,98234.22
2023-03-28T09:50:14.866Z,98227.53
2023-03-28T09:52:47.625Z,98219.88
2023-03-28T09:55:18.031Z,98234.59
2023-03-28T09:58:03.648Z,98234.63
2023-03-28T10:00:36.556Z,98235.84
2023-03-28T10:03:34.770Z,98241.00
2023-03-28T10:06:19.524Z,98233.09
2023-03-28T10:08:48.165Z,98231.59
2023-03-28T10:11:28.463Z,98239.63
2023-03-28T10:13:57.583Z,98241.59
2023-03-28T10:16:29.478Z,98243.81
2023-03-28T10:19:14.460Z,98245.06
2023-03-28T10:22:03.477Z,98239.06
2023-03-28T10:24:34.057Z,98243.53
2023-03-28T10:27:08.692Z,98239.50
2023-03-28T10:29:38.019Z,98243.81
2023-03-28T10:32:06.800Z,98248.41
2023-03-28T10:34:42.412Z,98253.81
2023-03-28T10:37:24.913Z,98249.50
2023-03-28T10:40:26.029Z,98244.91
2023-03-28T10:43:21.388Z,98258.97
2023-03-28T10:46:15.498Z,98263.16
2023-03-28T10:48:59.616Z,98254.53
2023-03-28T10:51:32.599Z,98263.53
2023-03-28T10:54:16.073Z,98261.03
2023-03-28T10:56:50.414Z,98261.47
2023-03-28T10:59:31.919Z,98260.75
2023-03-28T11:02:13.118Z,98250.13
2023-03-28T11:04:54.913Z,98253.34
2023-03-28T11:07:31.217Z,98240.94
2023-03-28T11:10:15.748Z,98240.59
2023-03-28T11:13:18.242Z,98253.91
2023-03-28T11:15:50.803Z,98255.28
2023-03-28T11:18:45.680Z,98246.38
2023-03-28T11:21:28.520Z,98259.44
2023-03-28T11:24:07.021Z,98252.09
2023-03-28T11:27:04.998Z,98248.59
2023-03-28T11:29:56.108Z,98243.97
2023-03-28T11:32:31.502Z,98242.25
2023-03-28T11:35:04.293Z,98251.59
2023-03-28T11:37:35.068Z,98261.31
2023-03-28T11:40:12.010Z,98256.19
2023-03-28T11:42:52.623Z,98257.53
2023-03-28T11:45:37.845Z,98259.34
2023-03-28T11:48:20.417Z,98252.84
2023-03-28T11:50:58.158Z,98251.25
2023-03-28T11:53:37.478Z,98266.56
2023-03-28T11:56:13.145Z,98254.22
2023-03-28T11:59:02.745Z,98248.75
2023-03-28T12:01:33.074Z,98237.28
2023-03-28T12:04:05.198Z,98235.03
2023-03-28T12:06:37.278Z,98236.94
2023-03-28T12:09:11.634Z,98237.22
2023-03-28T12:11:44.533Z,98227.53
2023-03-28T12:14:36.665Z,98230.81
2023-03-28T12:17:16.814Z,98226.38
2023-03-28T12:19:48.438Z,98223.31
2023-03-28T12:22:21.368Z,98230.47
2023-03-28T12:24:55.756Z,98232.72
2023-03-28T12:27:43.816Z,98220.19
2023-03-28T12:30:22.521Z,98224.63
2023-03-28T12:32:59.543Z,98221.53
2023-03-28T12:35:34.236Z,98231.25
2023-03-28T12:38:24.301Z,98227.69
2023-03-28T12:41:03.851Z,98230.28
2023-03-28T12:43:45.965Z,98218.09
2023-03-28T12:46:22.164Z,98220.28
2023-03-28T12:48:53.026Z,98211.88
2023-03-28T12:51:30.216Z,98207.09
2023-03-28T12:54:03.487Z,98230.47
2023-03-28T12:56:32.319Z,98232.63
2023-03-28T12:59:01.883Z,98232.53
2023-03-28T13:01:46.853Z,98235.72
2023-03-28T13:04:44.640Z,98225.72
2023-03-28T13:07:26.616Z,98237.31
2023-03-28T13:10:00.811Z,98231.34
2023-03-28T13:12:35.778Z,98235.41
2023-03-28T13:15:26.086Z,98237.22
2023-03-28T13:18:25.374Z,98234.13
2023-03-28T13:20:53.532Z,98226.56
2023-03-28T13:23:28.978Z,98229.59
2023-03-28T13:25:57.250Z,98223.28
2023-03-28T13:28:30.847Z,98221.56
2023-03-28T13:31:08.518Z,98223.50
2023-03-28T13:33:38.114Z,98223.91
2023-03-28T13:36:27.067Z,98227.44
2023-03-28T13:39:22.928Z,98213.50
2023-03-28T13:41:58.778Z,98220.41
2023-03-28T13:44:31.119Z,98221.41
2023-03-28T13:47:00.086Z,98227.78
2023-03-28T13:49:36.298Z,98220.97
2023-03-28T13:52:06.646Z,98223.22
2023-03-28T13:54:34.588Z,98218.53
2023-03-28T13:57:03.558Z,98217.47
2023-03-28T13:59:36.296Z,98223.50
2023-03-28T14:02:17.651Z,98220.22
2023-03-28T14:04:52.754Z,98229.75
2023-03-28T14:07:25.321Z,98221.88
2023-03-28T14:09:53.581Z,98219.06
2023-03-28T14:12:21.635Z,98214.00
2023-03-28T14:14:50.787Z,98225.09
2023-03-28T14:17:21.521Z,98225.06
2023-03-28T14:19:51.625Z,98226.13
2023-03-28T14:24:51.114Z,98217.63
2023-03-28T14:27:29.006Z,98201.44
2023-03-28T14:29:58.739Z,98215.97
2023-03-28T14:32:31.882Z,98220.34
2023-03-28T14:35:17.350Z,98232.06
2023-03-28T14:37:48.882Z,98220.72
2023-03-28T14:40:21.577Z,98225.16
2023-03-28T14:42:49.418Z,98223.94
2023-03-28T14:45:17.136Z,98223.41
2023-03-28T14:47:46.266Z,98226.03
2023-03-28T14:50:15.292Z,98216.28
2023-03-28T14:52:44.533Z,98211.56
2023-03-28T14:55:17.581Z,98208.69
2023-03-28T14:57:46.245Z,98208.88
2023-03-28T15:00:17.815Z,98213.78
2023-03-28T15:02:47.652Z,98207.31
2023-03-28T15:05:16.900Z,98210.97
2023-03-28T15:07:44.574Z,98198.94
2023-03-28T15:10:13.633Z,98206.78
2023-03-28T15:12:44.788Z,98200.28
2023-03-28T15:15:17.497Z,98198.84
2023-03-28T15:17:47.225Z,98206.13
2023-03-28T15:20:18.012Z,98201.41
2023-03-28T15:22:48.091Z,98200.50
2023-03-28T15:28:28.016Z,98190.88
2023-03-28T15:30:57.647Z,98188.72
2023-03-28T15:33:26.774Z,98192.03
2023-03-28T15:36:07.238Z,98183.41
2023-03-28T15:38:39.266Z,98181.81
2023-03-28T15:41:12.110Z,98176.78
2023-03-28T15:43:41.300Z,98176.13
2023-03-28T15:46:11.594Z,98182.06
2023-03-28T15:48:42.008Z,98182.75
2023-03-28T15:51:12.620Z,98175.94
2023-03-28T15:53:41.480Z,98174.31
2023-03-28T15:56:13.265Z,98176.63
2023-03-28T15:58:45.479Z,98179.34
2023-03-28T16:01:23.220Z,98171.31
2023-03-28T16:03:52.889Z,98164.81
2023-03-28T16:06:31.715Z,98167.53
2023-03-28T16:09:15.601Z,98167.34
2023-03-28T16:11:44.220Z,98165.13
2023-03-28T16:14:30.719Z,98160.13
2023-03-28T16:17:16.646Z,98167.56
2023-03-28T16:19:54.123Z,98166.22
2023-03-28T16:22:21.923Z,98158.34
2023-03-28T16:24:50.157Z,98161.78
2023-03-28T16:27:18.157Z,98162.66
2023-03-28T16:29:46.341Z,98159.47
2023-03-28T16:32:14.815Z,98160.53
2023-03-28T16:34:43.208Z,98156.84
2023-03-28T16:37:12.129Z,98156.53
2023-03-28T16:39:39.668Z,98151.31
2023-03-28T16:42:07.366Z,98154.59
2023-03-28T16:44:35.303Z,98154.34
2023-03-28T16:47:03.444Z,98147.13
2023-03-28T16:49:31.130Z,98146.28
2023-03-28T16:51:58.669Z,98150.16
2023-03-28T16:54:27.712Z,98143.28
2023-03-28T16:56:55.299Z,98143.78
2023-03-28T16:59:23.503Z,98145.47
2023-03-28T17:01:51.503Z,98140.00
2023-03-28T17:04:19.098Z,98137.03
2023-03-28T17:06:46.750Z,98131.13
2023-03-28T17:09:16.381Z,98128.56
2023-03-28T17:11:45.440Z,98125.69
2023-03-28T17:14:12.958Z,98131.25
2023-03-28T17:16:40.631Z,98129.31
2023-03-28T17:19:08.603Z,98129.03
2023-03-28T17:21:37.562Z,98125.97
2023-03-28T17:24:09.161Z,98116.97
2023-03-28T17:26:36.746Z,98117.81
2023-03-28T17:29:07.449Z,98118.25
2023-03-28T17:31:35.300Z,98117.13
2023-03-28T17:34:03.697Z,98123.25
2023-03-28T17:36:31.564Z,98112.28
2023-03-28T17:39:00.106Z,98116.63
2023-03-28T17:41:27.949Z,98112.22
2023-03-28T17:43:58.330Z,98113.41
2023-03-28T17:46:27.982Z,98110.22
2023-03-28T17:48:55.995Z,98114.00
2023-03-28T17:51:23.909Z,98118.44
2023-03-28T17:53:51.527Z,98117.34
2023-03-28T17:56:19.037Z,98115.13
2023-03-28T17:58:47.288Z,98119.22
2023-03-28T18:01:17.207Z,98118.53
2023-03-28T18:03:46.739Z,98116.88
2023-03-28T18:06:37.136Z,98120.63
2023-03-28T18:09:05.198Z,98119.41
2023-03-28T18:11:32.957Z,98113.31
2023-03-28T18:14:00.609Z,98121.94
2023-03-28T18:16:29.091Z,98119.31
2023-03-28T18:18:58.311Z,98118.63
2023-03-28T18:21:26.074Z,98126.44
2023-03-28T18:23:54.272Z,98120.03
2023-03-28T18:26:22.556Z,98125.03
2023-03-28T18:28:50.033Z,98123.13
2023-03-28T18:31:19.971Z,98124.50
2023-03-28T18:33:47.702Z,98118.00
2023-03-28T18:36:16.614Z,98120.63
2023-03-28T18:38:45.165Z,98131.03
2023-03-28T18:41:13.471Z,98122.84
2023-03-28T18:43:42.126Z,98125.22
2023-03-28T18:48:41.057Z,98132.34
2023-03-28T18:51:09.372Z,98120.66
2023-03-28T18:53:38.673Z,98124.94
2023-03-28T18:56:06.919Z,98114.69
2023-03-28T18:58:36.668Z,98107.88
2023-03-28T19:01:04.552Z,98110.78
2023-03-28T19:03:35.420Z,98106.47
2023-03-28T19:06:04.254Z,98107.44
2023-03-28T19:08:32.568Z,98110.38
2023-03-28T19:11:07.361Z,98108.28
2023-03-28T19:13:35.295Z,98108.59
2023-03-28T19:16:04.021Z,98102.19
2023-03-28T19:18:32.237Z,98101.22
2023-03-28T19:21:01.044Z,98096.38
2023-03-28T19:23:29.434Z,98102.31
2023-03-28T19:25:57.250Z,98104.81
2023-03-28T19:28:26.160Z,98092.72
2023-03-28T19:31:01.296Z,98104.94
2023-03-28T19:33:29.324Z,98084.81
2023-03-28T19:35:57.314Z,98078.16
2023-03-28T19:38:25.894Z,98076.06
2023-03-28T19:40:57.952Z,98064.97
2023-03-28T19:43:27.216Z,98067.75
2023-03-28T19:45:55.125Z,98067.34
2023-03-28T19:48:22.685Z,98068.72
2023-03-28T19:50:50.662Z,98057.88
2023-03-28T19:53:18.258Z,98053.00
2023-03-28T19:55:52.050Z,98059.56
2023-03-28T19:58:19.595Z,98046.75
2023-03-28T20:00:48.669Z,98051.19
2023-03-28T20:03:16.376Z,98052.03
2023-03-28T20:05:48.111Z,98060.19
2023-03-28T20:08:17.412Z,98055.59
2023-03-28T20:10:46.845Z,98051.31
2023-03-28T20:13:14.610Z,98056.44
2023-03-28T20:15:43.474Z,98054.06
2023-03-28T20:18:14.387Z,98054.19
2023-03-28T20:20:42.679Z,98050.59
2023-03-28T20:23:11.591Z,98053.38
2023-03-28T20:25:39.184Z,98046.31
2023-03-28T20:28:09.866Z,98039.66
2023-03-28T20:30:37.696Z,98036.47
2023-03-28T20:33:05.901Z,98030.66
2023-03-28T20:35:35.312Z,98028.56
2023-03-28T20:38:02.949Z,98027.84
2023-03-28T20:40:30.542Z,98022.88
2023-03-28T20:43:01.805Z,98023.97
2023-03-28T20:45:29.792Z,98017.28
2023-03-28T20:48:00.828Z,98009.00
2023-03-28T20:50:34.105Z,98015.78
2023-03-28T20:53:04.507Z,98006.88
2023-03-28T20:55:32.933Z,98009.09
2023-03-28T20:58:01.418Z,98005.63
2023-03-28T21:00:30.161Z,98011.31
2023-03-28T21:02:57.795Z,98014.81
2023-03-28T21:05:27.106Z,98008.16
2023-03-28T21:07:55.406Z,98011.19
2023-03-28T21:10:24.243Z,98000.25
2023-03-28T21:12:52.126Z,98003.28
2023-03-28T21:15:19.667Z,97997.03
2023-03-28T21:17:49.376Z,97991.78
2023-03-28T21:20:18.868Z,97987.34
2023-03-28T21:22:46.333Z,97983.47
2023-03-28T21:25:14.185Z,97980.00
2023-03-28T21:27:43.165Z,97974.28
2023-03-28T21:30:13.371Z,97970.16
2023-03-28T21:32:41.454Z,97962.25
2023-03-28T21:35:10.259Z,97964.31
2023-03-28T21:37:37.857Z,97961.81
2023-03-28T21:40:08.479Z,97965.84
2023-03-28T21:42:36.253Z,97958.75
2023-03-28T21:45:06.129Z,97963.47
2023-03-28T21:47:33.746Z,97959.03
2023-03-28T21:50:02.901Z,97960.13
2023-03-28T21:52:30.433Z,97948.50
2023-03-28T21:54:57.941Z,97942.25
2023-03-28T21:57:25.648Z,97952.66
2023-03-28T21:59:53.174Z,97950.41
2023-03-28T22:02:22.023Z,97941.53
2023-03-28T22:04:49.546Z,97931.44
2023-03-28T22:07:17.037Z,97933.63
2023-03-28T22:09:44.611Z,97932.81
2023-03-28T22:12:12.122Z,97931.44
2023-03-28T22:14:39.620Z,97923.50
2023-03-28T22:17:07.243Z,97935.44
2023-03-28T22:19:37.863Z,97928.94
2023-03-28T22:22:05.546Z,97932.09
2023-03-28T22:24:33.123Z,97936.00
2023-03-28T22:27:00.619Z,97920.88
2023-03-28T22:29:28.269Z,97916.28
2023-03-28T22:31:56.941Z,97912.81
2023-03-28T22:34:24.448Z,97909.22
2023-03-28T22:36:54.910Z,97915.75
2023-03-28T22:39:22.619Z,97913.66
2023-03-28T22:41:50.998Z,97911.59
2023-03-28T22:44:21.644Z,97911.84
2023-03-28T22:46:49.425Z,97922.25
2023-03-28T22:49:22.004Z,97914.50
2023-03-28T22:51:50.018Z,97904.91
2023-03-28T22:54:21.096Z,97909.22
2023-03-28T22:56:49.014Z,97910.88
2023-03-28T22:59:16.957Z,97916.03
2023-03-28T23:01:45.309Z,97911.47
2023-03-28T23:04:13.282Z,97914.91
2023-03-28T23:06:41.492Z,97905.75
2023-03-28T23:09:09.295Z,97908.38
2023-03-28T23:11:38.122Z,97907.16
2023-03-28T23:14:06.071Z,97906.59
2023-03-28T23:16:33.875Z,97902.97
2023-03-28T23:19:01.449Z,97895.66
2023-03-28T23:21:29.210Z,97907.41
2023-03-28T23:23:56.746Z,97901.44
2023-03-28T23:26:24.301Z,97904.91
2023-03-28T23:28:53.134Z,97893.97
2023-03-28T23:31:20.922Z,97895.50
2023-03-28T23:33:48.527Z,97890.50
2023-03-28T23:36:20.130Z,97888.28
2023-03-28T23:38:48.021Z,97892.03
2023-03-28T23:41:15.522Z,97884.66
2023-03-28T23:43:43.074Z,97880.81
2023-03-28T23:46:12.093Z,97878.44
2023-03-28T23:48:39.562Z,97880.50
2023-03-28T23:51:07.693Z,97876.38
2023-03-28T23:53:35.305Z,97877.31
2023-03-28T23:56:03.690Z,97866.78
2023-03-28T23:58:31.237Z,97872.31
